EKSN/CNL METAR and TAF weather

Enter ICAO airport designator
Station Type Date Time Source
EKSN METAR 2021/12/30 13:50 UTC NOAA

EKSN 301350Z 23014KT 4500 BR SCT006 BKN008 07/07 Q0999


Station Type Date Time Source
EKSN Decoded METAR 2021/12/30 13:50 UTC NOAA

Sindal Flyveplads, Denmark (EKSN) 57-30N 010-13E 28M
Dec 30, 2021 - 08:50 AM EST / 2021.12.30 1350 UTC
Wind: from the SW (230 degrees) at 16 MPH (14 KT):0
Visibility: 2 mile(s):0
Sky conditions: mostly cloudy
Weather: mist
Temperature: 44 F (7 C)
Dew Point: 44 F (7 C)
Relative Humidity: 100%
Pressure (altimeter): 29.50 in. Hg (0999 hPa)
ob: EKSN 301350Z 23014KT 4500 BR SCT006 BKN008 07/07 Q0999
cycle: 14

Station Type Date Time Source
EKSN TAF UTC NOAA

Error!

Example: see airport list